sensor_id;sensor_type;location;lat;lon;timestamp;temperature;humidity
17170;DHT22;8700;48.222;16.342;2024-02-26T00:01:04;9.00;99.90
17170;DHT22;8700;48.222;16.342;2024-02-26T00:04:26;9.00;99.90
17170;DHT22;8700;48.222;16.342;2024-02-26T00:07:47;9.10;99.90
17170;DHT22;8700;48.222;16.342;2024-02-26T00:11:08;9.00;99.90
17170;DHT22;8700;48.222;16.342;2024-02-26T00:14:31;9.10;99.90
17170;DHT22;8700;48.222;16.342;2024-02-26T00:17:52;9.00;99.90
17170;DHT22;8700;48.222;16.342;2024-02-26T00:21:13;9.10;99.90
17170;DHT22;8700;48.222;16.342;2024-02-26T00:24:34;9.10;99.90
17170;DHT22;8700;48.222;16.342;2024-02-26T00:27:55;9.10;99.90
17170;DHT22;8700;48.222;16.342;2024-02-26T00:31:18;9.00;99.90
17170;DHT22;8700;48.222;16.342;2024-02-26T00:34:40;9.10;99.90
17170;DHT22;8700;48.222;16.342;2024-02-26T00:38:01;9.20;99.90
17170;DHT22;8700;48.222;16.342;2024-02-26T00:41:23;9.30;99.90
17170;DHT22;8700;48.222;16.342;2024-02-26T00:44:44;9.20;99.90
17170;DHT22;8700;48.222;16.342;2024-02-26T00:48:07;9.20;99.90
17170;DHT22;8700;48.222;16.342;2024-02-26T00:51:28;9.10;99.90
17170;DHT22;8700;48.222;16.342;2024-02-26T00:54:49;8.90;99.90
17170;DHT22;8700;48.222;16.342;2024-02-26T00:58:10;8.70;99.90
17170;DHT22;8700;48.222;16.342;2024-02-26T01:01:31;8.70;99.90
17170;DHT22;8700;48.222;16.342;2024-02-26T01:04:53;8.60;99.90
17170;DHT22;8700;48.222;16.342;2024-02-26T01:08:15;8.50;99.90
17170;DHT22;8700;48.222;16.342;2024-02-26T01:11:36;8.60;99.90
17170;DHT22;8700;48.222;16.342;2024-02-26T01:14:57;8.60;99.90
17170;DHT22;8700;48.222;16.342;2024-02-26T01:18:18;8.60;99.90
17170;DHT22;8700;48.222;16.342;2024-02-26T01:21:41;8.60;99.90
17170;DHT22;8700;48.222;16.342;2024-02-26T01:25:02;8.50;99.90
17170;DHT22;8700;48.222;16.342;2024-02-26T01:28:23;8.20;99.90
17170;DHT22;8700;48.222;16.342;2024-02-26T01:31:44;8.10;99.90
17170;DHT22;8700;48.222;16.342;2024-02-26T01:35:06;8.00;99.90
17170;DHT22;8700;48.222;16.342;2024-02-26T01:38:31;8.10;99.90
17170;DHT22;8700;48.222;16.342;2024-02-26T01:41:52;8.10;99.90
17170;DHT22;8700;48.222;16.342;2024-02-26T01:45:15;8.10;99.90
17170;DHT22;8700;48.222;16.342;2024-02-26T01:48:41;8.20;99.90
17170;DHT22;8700;48.222;16.342;2024-02-26T01:52:04;8.20;99.90
17170;DHT22;8700;48.222;16.342;2024-02-26T01:55:28;8.30;99.90
17170;DHT22;8700;48.222;16.342;2024-02-26T01:58:49;8.20;99.90
17170;DHT22;8700;48.222;16.342;2024-02-26T02:02:12;8.30;99.90
17170;DHT22;8700;48.222;16.342;2024-02-26T02:05:33;8.30;99.90
17170;DHT22;8700;48.222;16.342;2024-02-26T02:08:58;8.30;99.90
17170;DHT22;8700;48.222;16.342;2024-02-26T02:12:27;8.30;99.90
17170;DHT22;8700;48.222;16.342;2024-02-26T02:15:48;8.30;99.90
17170;DHT22;8700;48.222;16.342;2024-02-26T02:19:09;8.30;99.90
17170;DHT22;8700;48.222;16.342;2024-02-26T02:22:32;8.20;99.90
17170;DHT22;8700;48.222;16.342;2024-02-26T02:25:54;8.10;99.90
17170;DHT22;8700;48.222;16.342;2024-02-26T02:29:15;8.10;99.90
17170;DHT22;8700;48.222;16.342;2024-02-26T02:32:38;8.20;99.90
17170;DHT22;8700;48.222;16.342;2024-02-26T02:36:00;8.20;99.90
17170;DHT22;8700;48.222;16.342;2024-02-26T02:39:23;8.20;99.90
17170;DHT22;8700;48.222;16.342;2024-02-26T02:42:44;8.20;99.90
17170;DHT22;8700;48.222;16.342;2024-02-26T02:46:05;8.20;99.90
17170;DHT22;8700;48.222;16.342;2024-02-26T02:49:26;8.10;99.90
17170;DHT22;8700;48.222;16.342;2024-02-26T02:52:48;8.10;99.90
17170;DHT22;8700;48.222;16.342;2024-02-26T02:56:11;8.00;99.90
17170;DHT22;8700;48.222;16.342;2024-02-26T02:59:32;7.90;99.90
17170;DHT22;8700;48.222;16.342;2024-02-26T03:02:53;7.80;99.90
17170;DHT22;8700;48.222;16.342;2024-02-26T03:06:14;7.80;99.90
17170;DHT22;8700;48.222;16.342;2024-02-26T03:09:35;7.80;99.90
17170;DHT22;8700;48.222;16.342;2024-02-26T03:12:58;7.70;99.90
17170;DHT22;8700;48.222;16.342;2024-02-26T03:16:19;7.80;99.90
17170;DHT22;8700;48.222;16.342;2024-02-26T03:19:40;7.70;99.90
17170;DHT22;8700;48.222;16.342;2024-02-26T03:23:01;7.70;99.90
17170;DHT22;8700;48.222;16.342;2024-02-26T03:26:22;7.70;99.90
17170;DHT22;8700;48.222;16.342;2024-02-26T03:29:44;7.90;99.90
17170;DHT22;8700;48.222;16.342;2024-02-26T03:33:06;8.00;99.90
17170;DHT22;8700;48.222;16.342;2024-02-26T03:36:27;8.00;99.90
17170;DHT22;8700;48.222;16.342;2024-02-26T03:39:48;8.00;99.90
17170;DHT22;8700;48.222;16.342;2024-02-26T03:43:09;7.90;99.90
17170;DHT22;8700;48.222;16.342;2024-02-26T03:46:31;7.90;99.90
17170;DHT22;8700;48.222;16.342;2024-02-26T03:49:52;7.70;99.90
17170;DHT22;8700;48.222;16.342;2024-02-26T03:53:13;7.50;99.90
17170;DHT22;8700;48.222;16.342;2024-02-26T03:56:34;7.30;99.90
17170;DHT22;8700;48.222;16.342;2024-02-26T03:59:56;7.30;99.90
17170;DHT22;8700;48.222;16.342;2024-02-26T04:03:18;7.30;99.90
17170;DHT22;8700;48.222;16.342;2024-02-26T04:06:39;7.40;99.90
17170;DHT22;8700;48.222;16.342;2024-02-26T04:10:01;7.40;99.90
17170;DHT22;8700;48.222;16.342;2024-02-26T04:13:25;7.50;99.90
17170;DHT22;8700;48.222;16.342;2024-02-26T04:16:46;7.50;99.90
17170;DHT22;8700;48.222;16.342;2024-02-26T04:20:15;7.50;99.90
17170;DHT22;8700;48.222;16.342;2024-02-26T04:23:36;7.50;99.90
17170;DHT22;8700;48.222;16.342;2024-02-26T04:26:57;7.50;99.90
17170;DHT22;8700;48.222;16.342;2024-02-26T04:30:19;7.50;99.90
17170;DHT22;8700;48.222;16.342;2024-02-26T04:33:40;7.50;99.90
17170;DHT22;8700;48.222;16.342;2024-02-26T04:37:03;7.40;99.90
17170;DHT22;8700;48.222;16.342;2024-02-26T04:40:24;7.30;99.90
17170;DHT22;8700;48.222;16.342;2024-02-26T04:43:46;7.40;99.90
17170;DHT22;8700;48.222;16.342;2024-02-26T04:47:07;7.30;99.90
17170;DHT22;8700;48.222;16.342;2024-02-26T04:50:28;7.30;99.90
17170;DHT22;8700;48.222;16.342;2024-02-26T04:53:50;7.20;99.90
17170;DHT22;8700;48.222;16.342;2024-02-26T04:57:13;7.20;99.90
17170;DHT22;8700;48.222;16.342;2024-02-26T05:00:34;7.00;99.90
17170;DHT22;8700;48.222;16.342;2024-02-26T05:03:55;6.90;99.90
17170;DHT22;8700;48.222;16.342;2024-02-26T05:07:16;6.80;99.90
17170;DHT22;8700;48.222;16.342;2024-02-26T05:10:39;6.70;99.90
17170;DHT22;8700;48.222;16.342;2024-02-26T05:14:01;6.70;99.90
17170;DHT22;8700;48.222;16.342;2024-02-26T05:17:22;6.80;99.90
17170;DHT22;8700;48.222;16.342;2024-02-26T05:20:43;6.70;99.90
17170;DHT22;8700;48.222;16.342;2024-02-26T05:24:05;6.70;99.90
17170;DHT22;8700;48.222;16.342;2024-02-26T05:27:27;6.80;99.90
17170;DHT22;8700;48.222;16.342;2024-02-26T05:30:48;6.80;99.90
17170;DHT22;8700;48.222;16.342;2024-02-26T05:34:10;6.70;99.90
17170;DHT22;8700;48.222;16.342;2024-02-26T05:37:31;6.70;99.90
17170;DHT22;8700;48.222;16.342;2024-02-26T05:40:52;6.70;99.90
17170;DHT22;8700;48.222;16.342;2024-02-26T05:44:15;6.80;99.90
17170;DHT22;8700;48.222;16.342;2024-02-26T05:47:37;6.80;99.90
17170;DHT22;8700;48.222;16.342;2024-02-26T05:51:02;6.90;99.90
17170;DHT22;8700;48.222;16.342;2024-02-26T05:54:23;7.00;99.90
17170;DHT22;8700;48.222;16.342;2024-02-26T05:57:44;7.00;99.90
17170;DHT22;8700;48.222;16.342;2024-02-26T06:01:06;6.90;99.90
17170;DHT22;8700;48.222;16.342;2024-02-26T06:04:27;6.90;99.90
17170;DHT22;8700;48.222;16.342;2024-02-26T06:07:49;7.00;99.90
17170;DHT22;8700;48.222;16.342;2024-02-26T06:11:10;7.20;99.90
17170;DHT22;8700;48.222;16.342;2024-02-26T06:14:31;7.10;99.90
17170;DHT22;8700;48.222;16.342;2024-02-26T06:17:54;7.30;99.90
17170;DHT22;8700;48.222;16.342;2024-02-26T06:21:15;7.20;99.90
17170;DHT22;8700;48.222;16.342;2024-02-26T06:24:36;7.20;99.90
17170;DHT22;8700;48.222;16.342;2024-02-26T06:27:57;7.20;99.90
17170;DHT22;8700;48.222;16.342;2024-02-26T06:31:18;7.30;99.90
17170;DHT22;8700;48.222;16.342;2024-02-26T06:34:41;7.30;99.90
17170;DHT22;8700;48.222;16.342;2024-02-26T06:38:03;7.40;99.90
17170;DHT22;8700;48.222;16.342;2024-02-26T06:41:24;7.30;99.90
17170;DHT22;8700;48.222;16.342;2024-02-26T06:44:47;7.20;99.90
17170;DHT22;8700;48.222;16.342;2024-02-26T06:48:08;7.20;99.90
17170;DHT22;8700;48.222;16.342;2024-02-26T06:51:30;7.20;99.90
17170;DHT22;8700;48.222;16.342;2024-02-26T06:54:51;7.40;99.90
17170;DHT22;8700;48.222;16.342;2024-02-26T06:58:13;7.60;99.90
17170;DHT22;8700;48.222;16.342;2024-02-26T07:01:34;7.50;99.90
17170;DHT22;8700;48.222;16.342;2024-02-26T07:04:55;7.40;99.90
17170;DHT22;8700;48.222;16.342;2024-02-26T07:08:19;7.40;99.90
17170;DHT22;8700;48.222;16.342;2024-02-26T07:11:41;7.40;99.90
17170;DHT22;8700;48.222;16.342;2024-02-26T07:15:03;7.60;99.90
17170;DHT22;8700;48.222;16.342;2024-02-26T07:18:27;7.80;99.90
17170;DHT22;8700;48.222;16.342;2024-02-26T07:21:48;7.80;99.90
17170;DHT22;8700;48.222;16.342;2024-02-26T07:25:11;7.90;99.90
17170;DHT22;8700;48.222;16.342;2024-02-26T07:28:33;7.70;99.90
17170;DHT22;8700;48.222;16.342;2024-02-26T07:31:54;7.80;99.90
17170;DHT22;8700;48.222;16.342;2024-02-26T07:35:15;7.90;99.90
17170;DHT22;8700;48.222;16.342;2024-02-26T07:38:37;7.90;99.90
17170;DHT22;8700;48.222;16.342;2024-02-26T07:41:59;7.90;99.90
17170;DHT22;8700;48.222;16.342;2024-02-26T07:45:20;7.90;99.90
17170;DHT22;8700;48.222;16.342;2024-02-26T07:48:42;8.20;99.90
17170;DHT22;8700;48.222;16.342;2024-02-26T07:52:03;8.50;99.90
17170;DHT22;8700;48.222;16.342;2024-02-26T07:55:24;8.70;99.90
17170;DHT22;8700;48.222;16.342;2024-02-26T07:58:47;8.80;99.90
17170;DHT22;8700;48.222;16.342;2024-02-26T08:02:08;8.80;99.90
17170;DHT22;8700;48.222;16.342;2024-02-26T08:05:29;8.60;99.90
17170;DHT22;8700;48.222;16.342;2024-02-26T08:08:51;9.10;99.90
17170;DHT22;8700;48.222;16.342;2024-02-26T08:12:12;9.10;99.90
17170;DHT22;8700;48.222;16.342;2024-02-26T08:15:35;9.10;99.90
17170;DHT22;8700;48.222;16.342;2024-02-26T08:18:57;8.90;99.90
17170;DHT22;8700;48.222;16.342;2024-02-26T08:22:18;9.00;99.90
17170;DHT22;8700;48.222;16.342;2024-02-26T08:25:39;9.30;99.90
17170;DHT22;8700;48.222;16.342;2024-02-26T08:29:00;9.50;99.90
17170;DHT22;8700;48.222;16.342;2024-02-26T08:32:23;9.70;99.90
17170;DHT22;8700;48.222;16.342;2024-02-26T08:35:44;9.90;99.90
17170;DHT22;8700;48.222;16.342;2024-02-26T08:39:05;10.10;99.90
17170;DHT22;8700;48.222;16.342;2024-02-26T08:42:26;10.00;99.90
17170;DHT22;8700;48.222;16.342;2024-02-26T08:45:47;10.20;99.90
17170;DHT22;8700;48.222;16.342;2024-02-26T08:49:10;10.40;99.90
17170;DHT22;8700;48.222;16.342;2024-02-26T08:52:31;10.60;99.90
17170;DHT22;8700;48.222;16.342;2024-02-26T08:55:52;10.80;99.90
17170;DHT22;8700;48.222;16.342;2024-02-26T08:59:14;10.80;99.90
17170;DHT22;8700;48.222;16.342;2024-02-26T09:02:36;11.20;99.90
17170;DHT22;8700;48.222;16.342;2024-02-26T09:05:59;11.20;99.90
17170;DHT22;8700;48.222;16.342;2024-02-26T09:09:21;11.00;99.90
17170;DHT22;8700;48.222;16.342;2024-02-26T09:12:45;11.10;99.90
17170;DHT22;8700;48.222;16.342;2024-02-26T09:16:06;11.10;99.90
17170;DHT22;8700;48.222;16.342;2024-02-26T09:19:27;11.00;99.90
17170;DHT22;8700;48.222;16.342;2024-02-26T09:22:50;11.30;99.90
17170;DHT22;8700;48.222;16.342;2024-02-26T09:26:11;11.50;99.90
17170;DHT22;8700;48.222;16.342;2024-02-26T09:29:32;11.50;99.90
17170;DHT22;8700;48.222;16.342;2024-02-26T09:32:53;11.80;99.90
17170;DHT22;8700;48.222;16.342;2024-02-26T09:36:14;11.50;99.90
17170;DHT22;8700;48.222;16.342;2024-02-26T09:39:37;11.70;99.90
17170;DHT22;8700;48.222;16.342;2024-02-26T09:42:59;11.90;99.90
17170;DHT22;8700;48.222;16.342;2024-02-26T09:46:21;12.00;99.90
17170;DHT22;8700;48.222;16.342;2024-02-26T09:49:43;12.30;99.90
17170;DHT22;8700;48.222;16.342;2024-02-26T09:53:05;12.70;99.90
17170;DHT22;8700;48.222;16.342;2024-02-26T09:56:31;13.00;99.90
17170;DHT22;8700;48.222;16.342;2024-02-26T09:59:54;13.10;99.90
17170;DHT22;8700;48.222;16.342;2024-02-26T10:03:18;13.50;99.90
17170;DHT22;8700;48.222;16.342;2024-02-26T10:06:43;14.20;99.90
17170;DHT22;8700;48.222;16.342;2024-02-26T10:10:06;14.60;99.90
17170;DHT22;8700;48.222;16.342;2024-02-26T10:13:29;14.80;99.90
17170;DHT22;8700;48.222;16.342;2024-02-26T10:16:50;15.30;99.30
17170;DHT22;8700;48.222;16.342;2024-02-26T10:20:13;15.90;99.40
17170;DHT22;8700;48.222;16.342;2024-02-26T10:23:35;17.30;97.80
17170;DHT22;8700;48.222;16.342;2024-02-26T10:26:57;17.30;96.50
17170;DHT22;8700;48.222;16.342;2024-02-26T10:30:20;17.90;94.80
17170;DHT22;8700;48.222;16.342;2024-02-26T10:33:43;17.90;91.80
17170;DHT22;8700;48.222;16.342;2024-02-26T10:37:05;17.50;90.60
17170;DHT22;8700;48.222;16.342;2024-02-26T10:40:26;17.10;91.30
17170;DHT22;8700;48.222;16.342;2024-02-26T10:43:47;17.20;90.70
17170;DHT22;8700;48.222;16.342;2024-02-26T10:47:10;17.10;90.60
17170;DHT22;8700;48.222;16.342;2024-02-26T10:50:31;17.10;90.90
17170;DHT22;8700;48.222;16.342;2024-02-26T10:53:57;18.20;90.20
17170;DHT22;8700;48.222;16.342;2024-02-26T10:57:18;18.80;87.40
17170;DHT22;8700;48.222;16.342;2024-02-26T11:00:41;19.00;86.10
17170;DHT22;8700;48.222;16.342;2024-02-26T11:04:03;18.50;83.00
17170;DHT22;8700;48.222;16.342;2024-02-26T11:07:26;17.30;85.80
17170;DHT22;8700;48.222;16.342;2024-02-26T11:10:50;17.80;88.30
17170;DHT22;8700;48.222;16.342;2024-02-26T11:14:14;19.10;81.50
17170;DHT22;8700;48.222;16.342;2024-02-26T11:17:35;19.30;80.70
17170;DHT22;8700;48.222;16.342;2024-02-26T11:21:00;19.20;79.70
17170;DHT22;8700;48.222;16.342;2024-02-26T11:24:21;18.10;80.10
17170;DHT22;8700;48.222;16.342;2024-02-26T11:27:46;17.10;84.40
17170;DHT22;8700;48.222;16.342;2024-02-26T11:31:09;17.90;82.90
17170;DHT22;8700;48.222;16.342;2024-02-26T11:34:31;17.90;81.60
17170;DHT22;8700;48.222;16.342;2024-02-26T11:37:55;17.30;82.50
17170;DHT22;8700;48.222;16.342;2024-02-26T11:41:16;18.10;80.10
17170;DHT22;8700;48.222;16.342;2024-02-26T11:44:38;18.40;78.30
17170;DHT22;8700;48.222;16.342;2024-02-26T11:48:01;18.20;77.10
17170;DHT22;8700;48.222;16.342;2024-02-26T11:51:25;17.40;75.50
17170;DHT22;8700;48.222;16.342;2024-02-26T11:54:49;16.80;76.80
17170;DHT22;8700;48.222;16.342;2024-02-26T11:58:10;16.50;74.80
17170;DHT22;8700;48.222;16.342;2024-02-26T12:01:39;15.80;74.50
17170;DHT22;8700;48.222;16.342;2024-02-26T12:05:00;15.80;76.00
17170;DHT22;8700;48.222;16.342;2024-02-26T12:08:22;15.80;76.80
17170;DHT22;8700;48.222;16.342;2024-02-26T12:11:47;16.00;77.20
17170;DHT22;8700;48.222;16.342;2024-02-26T12:15:09;15.50;78.60
17170;DHT22;8700;48.222;16.342;2024-02-26T12:18:31;15.90;78.70
17170;DHT22;8700;48.222;16.342;2024-02-26T12:21:53;16.20;78.00
17170;DHT22;8700;48.222;16.342;2024-02-26T12:25:16;16.00;77.60
17170;DHT22;8700;48.222;16.342;2024-02-26T12:28:41;16.10;76.70
17170;DHT22;8700;48.222;16.342;2024-02-26T12:32:03;16.40;75.40
17170;DHT22;8700;48.222;16.342;2024-02-26T12:35:27;16.70;74.00
17170;DHT22;8700;48.222;16.342;2024-02-26T12:38:48;16.20;74.40
17170;DHT22;8700;48.222;16.342;2024-02-26T12:42:09;15.80;75.70
17170;DHT22;8700;48.222;16.342;2024-02-26T12:45:32;16.10;75.60
17170;DHT22;8700;48.222;16.342;2024-02-26T12:48:55;15.80;75.50
17170;DHT22;8700;48.222;16.342;2024-02-26T12:52:18;15.50;76.50
17170;DHT22;8700;48.222;16.342;2024-02-26T12:55:39;15.60;76.70
17170;DHT22;8700;48.222;16.342;2024-02-26T12:59:01;16.00;76.20
17170;DHT22;8700;48.222;16.342;2024-02-26T13:02:25;16.30;75.90
17170;DHT22;8700;48.222;16.342;2024-02-26T13:05:46;16.60;75.60
17170;DHT22;8700;48.222;16.342;2024-02-26T13:09:08;16.10;76.10
17170;DHT22;8700;48.222;16.342;2024-02-26T13:12:33;15.40;76.70
17170;DHT22;8700;48.222;16.342;2024-02-26T13:16:02;15.40;77.30
17170;DHT22;8700;48.222;16.342;2024-02-26T13:19:25;15.30;77.10
17170;DHT22;8700;48.222;16.342;2024-02-26T13:22:47;15.20;77.20
17170;DHT22;8700;48.222;16.342;2024-02-26T13:26:11;15.40;77.50
17170;DHT22;8700;48.222;16.342;2024-02-26T13:29:33;15.40;78.40
17170;DHT22;8700;48.222;16.342;2024-02-26T13:32:54;15.00;77.90
17170;DHT22;8700;48.222;16.342;2024-02-26T13:36:16;15.00;77.80
17170;DHT22;8700;48.222;16.342;2024-02-26T13:39:38;15.10;77.60
17170;DHT22;8700;48.222;16.342;2024-02-26T13:43:00;15.40;77.60
17170;DHT22;8700;48.222;16.342;2024-02-26T13:46:21;15.70;77.20
17170;DHT22;8700;48.222;16.342;2024-02-26T13:49:43;15.30;77.70
17170;DHT22;8700;48.222;16.342;2024-02-26T13:53:05;15.40;77.70
17170;DHT22;8700;48.222;16.342;2024-02-26T13:56:26;15.00;77.70
17170;DHT22;8700;48.222;16.342;2024-02-26T13:59:48;14.90;77.90
17170;DHT22;8700;48.222;16.342;2024-02-26T14:03:10;14.80;78.20
17170;DHT22;8700;48.222;16.342;2024-02-26T14:06:31;15.10;78.30
17170;DHT22;8700;48.222;16.342;2024-02-26T14:09:54;14.90;77.70
17170;DHT22;8700;48.222;16.342;2024-02-26T14:13:15;15.00;77.90
17170;DHT22;8700;48.222;16.342;2024-02-26T14:16:36;14.90;77.80
17170;DHT22;8700;48.222;16.342;2024-02-26T14:19:58;15.10;77.80
17170;DHT22;8700;48.222;16.342;2024-02-26T14:23:19;15.20;77.90
17170;DHT22;8700;48.222;16.342;2024-02-26T14:26:42;15.50;77.80
17170;DHT22;8700;48.222;16.342;2024-02-26T14:30:04;15.70;77.80
17170;DHT22;8700;48.222;16.342;2024-02-26T14:33:25;15.70;78.50
17170;DHT22;8700;48.222;16.342;2024-02-26T14:36:46;15.70;79.30
17170;DHT22;8700;48.222;16.342;2024-02-26T14:40:08;15.40;79.70
17170;DHT22;8700;48.222;16.342;2024-02-26T14:43:31;15.30;79.30
17170;DHT22;8700;48.222;16.342;2024-02-26T14:46:54;15.40;79.20
17170;DHT22;8700;48.222;16.342;2024-02-26T14:50:15;15.10;79.50
17170;DHT22;8700;48.222;16.342;2024-02-26T14:53:36;15.10;80.00
17170;DHT22;8700;48.222;16.342;2024-02-26T14:56:57;15.00;80.10
17170;DHT22;8700;48.222;16.342;2024-02-26T15:00:20;14.80;80.60
17170;DHT22;8700;48.222;16.342;2024-02-26T15:03:41;14.50;81.50
17170;DHT22;8700;48.222;16.342;2024-02-26T15:07:02;14.50;82.30
17170;DHT22;8700;48.222;16.342;2024-02-26T15:10:24;14.40;82.90
17170;DHT22;8700;48.222;16.342;2024-02-26T15:13:45;14.30;84.00
17170;DHT22;8700;48.222;16.342;2024-02-26T15:17:07;14.20;83.90
17170;DHT22;8700;48.222;16.342;2024-02-26T15:20:30;14.20;84.40
17170;DHT22;8700;48.222;16.342;2024-02-26T15:23:51;14.10;84.80
17170;DHT22;8700;48.222;16.342;2024-02-26T15:27:13;14.10;85.30
17170;DHT22;8700;48.222;16.342;2024-02-26T15:30:35;14.10;85.60
17170;DHT22;8700;48.222;16.342;2024-02-26T15:33:58;14.10;85.50
17170;DHT22;8700;48.222;16.342;2024-02-26T15:37:19;14.10;85.50
17170;DHT22;8700;48.222;16.342;2024-02-26T15:40:40;14.00;85.50
17170;DHT22;8700;48.222;16.342;2024-02-26T15:44:01;14.00;85.80
17170;DHT22;8700;48.222;16.342;2024-02-26T15:47:22;13.90;85.80
17170;DHT22;8700;48.222;16.342;2024-02-26T15:50:45;13.90;85.80
17170;DHT22;8700;48.222;16.342;2024-02-26T15:54:05;13.70;86.10
17170;DHT22;8700;48.222;16.342;2024-02-26T15:57:27;13.70;86.10
17170;DHT22;8700;48.222;16.342;2024-02-26T16:00:48;13.70;86.00
17170;DHT22;8700;48.222;16.342;2024-02-26T16:04:09;13.60;86.50
17170;DHT22;8700;48.222;16.342;2024-02-26T16:07:35;13.60;86.70
17170;DHT22;8700;48.222;16.342;2024-02-26T16:10:57;13.70;86.70
17170;DHT22;8700;48.222;16.342;2024-02-26T16:14:26;13.70;86.70
17170;DHT22;8700;48.222;16.342;2024-02-26T16:17:53;13.60;86.70
17170;DHT22;8700;48.222;16.342;2024-02-26T16:21:15;13.70;87.30
17170;DHT22;8700;48.222;16.342;2024-02-26T16:24:37;13.80;87.20
17170;DHT22;8700;48.222;16.342;2024-02-26T16:27:58;13.60;87.80
17170;DHT22;8700;48.222;16.342;2024-02-26T16:31:20;13.50;88.30
17170;DHT22;8700;48.222;16.342;2024-02-26T16:34:41;13.40;88.80
17170;DHT22;8700;48.222;16.342;2024-02-26T16:38:02;13.40;89.10
17170;DHT22;8700;48.222;16.342;2024-02-26T16:41:24;13.50;89.30
17170;DHT22;8700;48.222;16.342;2024-02-26T16:44:46;13.50;89.10
17170;DHT22;8700;48.222;16.342;2024-02-26T16:48:07;13.50;89.70
17170;DHT22;8700;48.222;16.342;2024-02-26T16:51:28;13.40;89.80
17170;DHT22;8700;48.222;16.342;2024-02-26T16:54:50;13.30;90.00
17170;DHT22;8700;48.222;16.342;2024-02-26T16:58:12;13.40;90.00
17170;DHT22;8700;48.222;16.342;2024-02-26T17:01:33;13.40;90.00
17170;DHT22;8700;48.222;16.342;2024-02-26T17:04:55;13.40;90.20
17170;DHT22;8700;48.222;16.342;2024-02-26T17:08:16;13.30;90.20
17170;DHT22;8700;48.222;16.342;2024-02-26T17:11:37;13.20;90.30
17170;DHT22;8700;48.222;16.342;2024-02-26T17:14:59;13.20;90.50
17170;DHT22;8700;48.222;16.342;2024-02-26T17:18:20;13.30;90.50
17170;DHT22;8700;48.222;16.342;2024-02-26T17:21:42;13.20;90.60
17170;DHT22;8700;48.222;16.342;2024-02-26T17:25:03;13.20;90.80
17170;DHT22;8700;48.222;16.342;2024-02-26T17:28:25;13.20;90.80
17170;DHT22;8700;48.222;16.342;2024-02-26T17:31:47;13.20;90.70
17170;DHT22;8700;48.222;16.342;2024-02-26T17:35:08;13.30;90.80
17170;DHT22;8700;48.222;16.342;2024-02-26T17:38:34;13.30;90.70
17170;DHT22;8700;48.222;16.342;2024-02-26T17:41:55;13.20;90.70
17170;DHT22;8700;48.222;16.342;2024-02-26T17:45:16;13.30;90.80
17170;DHT22;8700;48.222;16.342;2024-02-26T17:48:42;13.30;90.80
17170;DHT22;8700;48.222;16.342;2024-02-26T17:52:04;13.30;90.90
17170;DHT22;8700;48.222;16.342;2024-02-26T17:55:25;13.40;90.80
17170;DHT22;8700;48.222;16.342;2024-02-26T17:58:46;13.30;90.80
17170;DHT22;8700;48.222;16.342;2024-02-26T18:02:07;13.30;91.10
17170;DHT22;8700;48.222;16.342;2024-02-26T18:05:30;13.20;90.90
17170;DHT22;8700;48.222;16.342;2024-02-26T18:08:51;13.30;90.80
17170;DHT22;8700;48.222;16.342;2024-02-26T18:12:12;13.10;91.00
17170;DHT22;8700;48.222;16.342;2024-02-26T18:15:33;13.10;91.00
17170;DHT22;8700;48.222;16.342;2024-02-26T18:18:54;13.20;91.10
17170;DHT22;8700;48.222;16.342;2024-02-26T18:22:16;13.00;91.30
17170;DHT22;8700;48.222;16.342;2024-02-26T18:25:38;13.00;91.20
17170;DHT22;8700;48.222;16.342;2024-02-26T18:28:59;13.00;91.20
17170;DHT22;8700;48.222;16.342;2024-02-26T18:32:20;12.90;91.30
17170;DHT22;8700;48.222;16.342;2024-02-26T18:35:41;12.90;91.30
17170;DHT22;8700;48.222;16.342;2024-02-26T18:39:03;12.90;91.30
17170;DHT22;8700;48.222;16.342;2024-02-26T18:42:26;12.90;91.50
17170;DHT22;8700;48.222;16.342;2024-02-26T18:45:48;12.80;91.50
17170;DHT22;8700;48.222;16.342;2024-02-26T18:49:10;12.80;91.50
17170;DHT22;8700;48.222;16.342;2024-02-26T18:52:32;12.80;91.70
17170;DHT22;8700;48.222;16.342;2024-02-26T18:55:54;12.70;91.70
17170;DHT22;8700;48.222;16.342;2024-02-26T18:59:15;12.60;91.90
17170;DHT22;8700;48.222;16.342;2024-02-26T19:02:36;12.50;92.10
17170;DHT22;8700;48.222;16.342;2024-02-26T19:05:58;12.50;92.20
17170;DHT22;8700;48.222;16.342;2024-02-26T19:09:19;12.50;92.10
17170;DHT22;8700;48.222;16.342;2024-02-26T19:12:42;12.50;92.20
17170;DHT22;8700;48.222;16.342;2024-02-26T19:16:04;12.60;92.20
17170;DHT22;8700;48.222;16.342;2024-02-26T19:19:25;12.40;92.40
17170;DHT22;8700;48.222;16.342;2024-02-26T19:22:47;12.40;92.60
17170;DHT22;8700;48.222;16.342;2024-02-26T19:26:09;12.40;92.70
17170;DHT22;8700;48.222;16.342;2024-02-26T19:29:31;12.20;92.90
17170;DHT22;8700;48.222;16.342;2024-02-26T19:32:52;12.20;93.10
17170;DHT22;8700;48.222;16.342;2024-02-26T19:36:13;12.20;93.20
17170;DHT22;8700;48.222;16.342;2024-02-26T19:39:34;12.30;93.20
17170;DHT22;8700;48.222;16.342;2024-02-26T19:42:55;12.30;93.20
17170;DHT22;8700;48.222;16.342;2024-02-26T19:46:18;12.30;93.30
17170;DHT22;8700;48.222;16.342;2024-02-26T19:49:39;12.30;93.30
17170;DHT22;8700;48.222;16.342;2024-02-26T19:53:00;12.30;93.30
17170;DHT22;8700;48.222;16.342;2024-02-26T19:56:21;12.30;93.40
17170;DHT22;8700;48.222;16.342;2024-02-26T19:59:44;12.40;93.30
17170;DHT22;8700;48.222;16.342;2024-02-26T20:03:06;12.30;93.30
17170;DHT22;8700;48.222;16.342;2024-02-26T20:06:27;12.30;93.30
17170;DHT22;8700;48.222;16.342;2024-02-26T20:09:48;12.40;93.10
17170;DHT22;8700;48.222;16.342;2024-02-26T20:13:10;12.20;93.10
17170;DHT22;8700;48.222;16.342;2024-02-26T20:16:31;12.10;93.20
17170;DHT22;8700;48.222;16.342;2024-02-26T20:19:53;12.20;93.10
17170;DHT22;8700;48.222;16.342;2024-02-26T20:23:17;12.30;92.90
17170;DHT22;8700;48.222;16.342;2024-02-26T20:26:39;12.20;93.10
17170;DHT22;8700;48.222;16.342;2024-02-26T20:30:00;12.20;92.90
17170;DHT22;8700;48.222;16.342;2024-02-26T20:33:22;12.20;93.10
17170;DHT22;8700;48.222;16.342;2024-02-26T20:36:45;12.20;92.80
17170;DHT22;8700;48.222;16.342;2024-02-26T20:40:07;12.10;92.90
17170;DHT22;8700;48.222;16.342;2024-02-26T20:43:28;12.10;93.10
17170;DHT22;8700;48.222;16.342;2024-02-26T20:46:50;12.00;93.00
17170;DHT22;8700;48.222;16.342;2024-02-26T20:50:15;12.00;93.10
17170;DHT22;8700;48.222;16.342;2024-02-26T20:53:38;12.20;92.80
17170;DHT22;8700;48.222;16.342;2024-02-26T20:57:01;12.10;92.70
17170;DHT22;8700;48.222;16.342;2024-02-26T21:00:23;12.20;93.00
17170;DHT22;8700;48.222;16.342;2024-02-26T21:03:44;12.10;92.90
17170;DHT22;8700;48.222;16.342;2024-02-26T21:07:05;12.00;93.20
17170;DHT22;8700;48.222;16.342;2024-02-26T21:10:28;12.20;93.00
17170;DHT22;8700;48.222;16.342;2024-02-26T21:13:49;12.30;93.10
17170;DHT22;8700;48.222;16.342;2024-02-26T21:17:10;11.90;93.00
17170;DHT22;8700;48.222;16.342;2024-02-26T21:20:32;11.90;93.20
17170;DHT22;8700;48.222;16.342;2024-02-26T21:23:53;11.90;93.60